Time;durP1;ratioP1;P1;durP2;ratioP2;P2;SDS_P1;SDS_P2;PMS_P1;PMS_P2;Temp;Humidity;BMP_temperature;BMP_pressure;BME280_temperature;BME280_humidity;BME280_pressure;Samples;Min_cycle;Max_cycle;Signal;HPM_P1;HPM_P2
2023/04/26 00:01:10;;;;;;;4.30;2.33;;;11.50;99.90;;;11.56;68.87;94038.84;4993688;28;20517;-64
2023/04/26 00:03:40;;;;;;;3.03;2.83;;;11.50;99.90;;;11.54;68.99;94032.91;4996220;28;20848;-57
2023/04/26 00:06:08;;;;;;;4.80;2.80;;;11.50;99.90;;;11.52;68.83;94029.63;4992738;28;20525;-65
2023/04/26 00:08:36;;;;;;;5.50;2.70;;;11.50;99.90;;;11.50;68.80;94032.41;4993990;28;20495;-55
2023/04/26 00:11:03;;;;;;;7.77;3.03;;;11.40;99.90;;;11.44;69.15;94023.34;4998418;28;20939;-65
2023/04/26 00:13:30;;;;;;;4.07;3.53;;;11.40;99.90;;;11.38;69.05;94021.38;4990528;28;20573;-55
2023/04/26 00:15:58;;;;;;;3.30;2.97;;;11.30;99.90;;;11.35;69.31;94018.28;4996983;28;20458;-65
2023/04/26 00:18:25;;;;;;;5.33;3.27;;;11.30;99.90;;;11.31;69.29;94007.25;4995203;28;20480;-57
2023/04/26 00:20:53;;;;;;;7.03;3.30;;;11.30;99.90;;;11.27;69.38;94004.13;4994699;28;20459;-64
2023/04/26 00:23:21;;;;;;;3.60;3.30;;;11.20;99.90;;;11.25;69.67;94005.28;4993525;28;20477;-65
2023/04/26 00:25:48;;;;;;;5.47;3.30;;;11.20;99.90;;;11.22;69.67;94003.81;4989990;28;20459;-56
2023/04/26 00:28:15;;;;;;;5.70;3.63;;;11.20;99.90;;;11.19;69.86;94003.31;4994352;28;20981;-55
2023/04/26 00:30:46;;;;;;;4.80;3.80;;;11.20;99.90;;;11.17;69.88;94005.28;4995993;28;20461;-65
2023/04/26 00:33:13;;;;;;;4.13;2.83;;;11.10;99.90;;;11.15;69.96;94004.63;4991897;28;20467;-57
2023/04/26 00:35:41;;;;;;;3.53;3.20;;;11.10;99.90;;;11.11;69.86;93997.06;4996032;28;20473;-65
2023/04/26 00:38:09;;;;;;;4.70;3.93;;;11.10;99.90;;;11.08;69.98;93999.19;4994292;28;20925;-55
2023/04/26 00:40:37;;;;;;;6.93;4.00;;;11.10;99.90;;;11.02;70.16;93990.16;4994618;28;20462;-65
2023/04/26 00:43:04;;;;;;;6.30;3.00;;;11.00;99.90;;;11.02;69.97;93998.03;4992552;28;20466;-64
2023/04/26 00:45:31;;;;;;;3.00;2.80;;;11.00;99.90;;;11.00;70.16;94005.28;4993731;28;20454;-56
2023/04/26 00:47:59;;;;;;;7.13;3.23;;;11.00;99.90;;;10.98;69.98;94007.25;4994992;28;20482;-55
2023/04/26 00:50:26;;;;;;;5.37;3.20;;;10.90;99.90;;;10.94;70.33;93998.84;4991646;28;20494;-57
2023/04/26 00:52:54;;;;;;;11.67;3.73;;;10.90;99.90;;;10.92;70.14;94002.63;4994659;28;20469;-65
2023/04/26 00:55:25;;;;;;;7.57;3.40;;;10.90;99.90;;;10.88;70.20;94003.97;4994587;28;20484;-55
2023/04/26 00:57:52;;;;;;;4.90;3.07;;;10.90;99.90;;;10.84;70.28;94000.81;4990650;28;20474;-64
2023/04/26 01:00:20;;;;;;;3.37;2.77;;;10.80;99.90;;;10.83;70.44;94003.59;4991977;28;20469;-56
2023/04/26 01:02:47;;;;;;;8.10;2.83;;;10.80;99.90;;;10.80;70.34;93998.66;4990792;28;20470;-55
2023/04/26 01:05:15;;;;;;;4.70;3.40;;;10.80;99.90;;;10.76;70.34;94003.44;4989811;28;20459;-56
2023/04/26 01:07:42;;;;;;;9.47;4.07;;;10.70;99.90;;;10.73;70.57;94001.94;4995687;28;20471;-54
2023/04/26 01:10:11;;;;;;;5.27;3.97;;;10.70;99.90;;;10.70;70.46;94009.34;4995105;28;20463;-65
2023/04/26 01:12:40;;;;;;;6.40;3.33;;;10.70;99.90;;;10.61;70.53;94007.69;4993058;28;20490;-55
2023/04/26 01:15:08;;;;;;;5.60;3.90;;;10.60;99.90;;;10.56;70.28;94011.63;4992547;28;20495;-56
2023/04/26 01:17:37;;;;;;;3.40;3.10;;;10.50;99.90;;;10.48;70.29;94008.97;4992066;28;20482;-57
2023/04/26 01:20:08;;;;;;;3.20;2.80;;;10.50;99.90;;;10.38;70.29;94003.88;4995479;28;20466;-67
2023/04/26 01:22:37;;;;;;;7.27;4.00;;;10.40;99.90;;;10.37;70.54;93989.06;4991513;28;20545;-56
2023/04/26 01:25:06;;;;;;;7.80;3.73;;;10.40;99.90;;;10.37;71.07;93986.44;4993368;28;20470;-57
2023/04/26 01:27:34;;;;;;;11.40;3.77;;;10.40;99.90;;;10.38;70.85;93989.91;4995002;28;20473;-65
2023/04/26 01:30:02;;;;;;;7.37;2.80;;;10.40;99.90;;;10.37;70.94;93999.56;4992725;28;20462;-64
2023/04/26 01:32:29;;;;;;;4.60;3.40;;;10.40;99.90;;;10.37;71.12;93999.56;4994813;28;20799;-56
2023/04/26 01:34:56;;;;;;;5.97;3.43;;;10.30;99.90;;;10.36;71.12;94007.63;4994211;28;20577;-56
2023/04/26 01:37:25;;;;;;;5.50;4.00;;;10.40;99.90;;;10.34;71.06;94006.97;4991645;28;21025;-55
2023/04/26 01:39:53;;;;;;;4.37;3.60;;;10.40;99.90;;;10.32;70.94;94001.84;4992756;28;20453;-63
2023/04/26 01:42:21;;;;;;;4.13;3.73;;;10.30;99.90;;;10.31;71.07;94010.69;4994338;28;20478;-55
2023/04/26 01:44:48;;;;;;;4.13;3.57;;;10.30;99.90;;;10.29;71.21;94009.22;4992243;28;20843;-55
2023/04/26 01:47:16;;;;;;;4.27;3.67;;;10.30;99.90;;;10.29;70.86;94009.22;4991392;28;20999;-57
2023/04/26 01:49:43;;;;;;;2.87;2.67;;;10.30;99.90;;;10.30;71.09;94011.69;4990331;28;20446;-56
2023/04/26 01:52:10;;;;;;;2.93;2.73;;;10.30;99.90;;;10.32;71.02;94012.34;4989697;28;20476;-56
2023/04/26 01:54:38;;;;;;;2.90;2.70;;;10.30;99.90;;;10.33;70.96;94006.16;4994742;28;20482;-65
2023/04/26 01:57:06;;;;;;;3.40;3.13;;;10.30;99.90;;;10.35;70.72;93998.94;4995725;28;20471;-58
2023/04/26 01:59:34;;;;;;;3.33;3.03;;;10.30;99.90;;;10.37;70.80;93996.94;4992397;28;20458;-56
2023/04/26 02:02:01;;;;;;;3.67;3.40;;;10.30;99.90;;;10.37;70.64;93996.94;4992891;28;20483;-65
2023/04/26 02:04:28;;;;;;;4.13;2.83;;;10.40;99.90;;;10.39;70.41;93988.91;4991338;28;20522;-64
2023/04/26 02:06:56;;;;;;;2.87;2.67;;;10.40;99.90;;;10.40;70.10;93987.94;4989248;28;21138;-63
2023/04/26 02:09:23;;;;;;;4.80;3.20;;;10.40;99.90;;;10.37;70.34;93978.56;4990029;28;20501;-65
2023/04/26 02:11:51;;;;;;;3.20;2.90;;;10.40;99.90;;;10.34;69.97;93978.06;4992201;28;20471;-64
2023/04/26 02:14:19;;;;;;;4.00;3.23;;;10.40;99.90;;;10.33;69.96;93979.88;4985538;28;20493;-56
2023/04/26 02:16:47;;;;;;;3.67;3.33;;;10.30;99.90;;;10.28;70.00;93974.22;4990331;28;20518;-64
2023/04/26 02:19:14;;;;;;;4.37;3.00;;;10.30;99.90;;;10.24;70.09;93975.53;4994523;28;20454;-65
2023/04/26 02:21:55;;;;;;;5.33;3.10;;;10.30;99.90;;;10.22;70.13;93974.88;4991793;28;20453;-65
2023/04/26 02:24:23;;;;;;;8.13;3.20;;;10.20;99.90;;;10.19;70.17;93970.78;4993622;28;20456;-65
2023/04/26 02:26:50;;;;;;;3.50;3.17;;;10.20;99.90;;;10.18;70.27;93970.94;4993985;28;20472;-63
2023/04/26 02:29:19;;;;;;;5.60;3.60;;;10.20;99.90;;;10.17;70.30;93977.16;4988834;28;20457;-55
2023/04/26 02:31:47;;;;;;;4.37;3.23;;;10.20;99.90;;;10.17;70.26;93983.22;4994416;28;20596;-56
2023/04/26 02:34:15;;;;;;;6.87;2.97;;;10.10;99.90;;;10.16;70.59;93976.34;4993126;28;20902;-55
2023/04/26 02:36:42;;;;;;;5.90;3.37;;;10.20;99.90;;;10.17;70.73;93983.22;4994085;28;20450;-55
2023/04/26 02:39:10;;;;;;;6.20;2.83;;;10.20;99.90;;;10.21;70.80;93989.00;4995183;28;20459;-64
2023/04/26 02:41:38;;;;;;;9.30;3.43;;;10.20;99.90;;;10.23;70.87;93987.03;4993731;28;20458;-56
2023/04/26 02:44:06;;;;;;;6.77;3.70;;;10.20;99.90;;;10.25;70.83;94000.00;4998845;28;20450;-56
2023/04/26 02:46:35;;;;;;;4.43;2.57;;;10.20;99.90;;;10.27;70.97;93993.63;4995113;28;20458;-55
2023/04/26 02:49:03;;;;;;;10.30;2.90;;;10.20;99.90;;;10.28;71.39;93979.47;4996480;28;20544;-56
2023/04/26 02:51:31;;;;;;;6.53;3.33;;;10.30;99.90;;;10.28;71.26;93978.66;4994724;28;20454;-55
2023/04/26 02:53:58;;;;;;;6.60;3.80;;;10.30;99.90;;;10.26;71.07;93976.19;4994713;28;20485;-56
2023/04/26 02:56:26;;;;;;;6.57;2.47;;;10.20;99.90;;;10.28;70.52;93970.78;4995510;28;20463;-65
2023/04/26 02:58:53;;;;;;;7.30;3.17;;;10.20;99.90;;;10.30;71.04;93972.28;4998087;28;20551;-65
2023/04/26 03:01:20;;;;;;;3.53;2.53;;;10.30;99.90;;;10.33;71.11;93966.72;4993043;28;20981;-65
2023/04/26 03:03:49;;;;;;;10.20;3.20;;;10.30;99.90;;;10.32;71.51;93964.22;4995358;28;20498;-55
2023/04/26 03:06:17;;;;;;;3.57;2.80;;;10.30;99.90;;;10.30;71.10;93968.81;4999353;28;20463;-66
2023/04/26 03:08:44;;;;;;;7.23;2.80;;;10.30;99.90;;;10.27;71.60;93966.50;4991864;28;20549;-58
2023/04/26 03:11:11;;;;;;;4.47;3.33;;;10.20;99.90;;;10.23;71.20;93961.56;4997751;28;20456;-56
2023/04/26 03:13:39;;;;;;;6.37;4.03;;;10.20;99.90;;;10.26;71.17;93964.88;4993915;28;20970;-64
2023/04/26 03:16:07;;;;;;;5.63;3.20;;;10.20;99.90;;;10.27;71.19;93969.97;4990868;28;20495;-56
2023/04/26 03:18:34;;;;;;;4.13;2.77;;;10.20;99.90;;;10.30;71.46;93967.03;4997067;28;20481;-64
2023/04/26 03:21:03;;;;;;;5.73;3.60;;;10.30;99.90;;;10.32;71.43;93965.03;4994921;28;20458;-57
2023/04/26 03:23:31;;;;;;;3.37;3.07;;;10.30;99.90;;;10.32;71.49;93962.41;4999500;28;20580;-57
2023/04/26 03:25:58;;;;;;;4.20;3.27;;;10.30;99.90;;;10.34;70.95;93965.72;4998371;28;20463;-56
2023/04/26 03:28:26;;;;;;;4.50;4.10;;;10.30;99.90;;;10.36;71.46;93961.16;4996175;28;20576;-66
2023/04/26 03:30:53;;;;;;;4.80;4.27;;;10.30;99.90;;;10.39;71.39;93960.00;4995998;28;20450;-57
2023/04/26 03:33:20;;;;;;;4.33;3.93;;;10.40;99.90;;;10.39;71.35;93963.47;4996803;28;21107;-65
2023/04/26 03:35:48;;;;;;;3.27;2.97;;;10.40;99.90;;;10.41;71.31;93968.56;4994109;28;20490;-65
2023/04/26 03:38:17;;;;;;;4.60;3.30;;;10.40;99.90;;;10.42;71.21;93958.84;4994068;28;21363;-55
2023/04/26 03:40:44;;;;;;;7.53;3.50;;;10.40;99.90;;;10.42;71.44;93969.38;4987145;28;20465;-66
2023/04/26 03:43:11;;;;;;;3.23;3.03;;;10.40;99.90;;;10.44;71.18;93976.13;4994677;28;20493;-57
2023/04/26 03:45:39;;;;;;;3.23;2.97;;;10.40;99.90;;;10.46;71.30;93975.97;4990929;28;20463;-57
2023/04/26 03:48:06;;;;;;;3.90;3.60;;;10.40;99.90;;;10.47;71.41;93977.59;4990968;28;21053;-58
2023/04/26 03:50:34;;;;;;;3.87;3.20;;;10.50;99.90;;;10.50;71.44;93977.25;4993729;28;20463;-64
2023/04/26 03:53:01;;;;;;;5.60;3.70;;;10.50;99.90;;;10.52;71.54;93981.38;4990836;28;20489;-66
2023/04/26 03:55:30;;;;;;;3.17;2.93;;;10.50;99.90;;;10.53;71.17;93990.94;4995233;28;21053;-65
2023/04/26 03:57:57;;;;;;;9.00;4.80;;;10.50;99.90;;;10.56;71.21;93995.03;4995145;28;20471;-56
2023/04/26 04:00:24;;;;;;;4.40;4.00;;;10.50;99.90;;;10.54;70.91;94003.06;4995121;28;21063;-57
2023/04/26 04:02:52;;;;;;;4.10;3.73;;;10.50;99.90;;;10.54;70.91;94005.69;4992528;28;20470;-58
2023/04/26 04:05:19;;;;;;;13.50;8.93;;;10.50;99.90;;;10.57;71.14;94005.38;4993704;28;20454;-57
2023/04/26 04:07:47;;;;;;;5.97;4.67;;;10.50;99.90;;;10.62;71.12;94001.47;4985451;28;20478;-56
2023/04/26 04:10:15;;;;;;;9.20;4.50;;;10.60;99.90;;;10.66;71.18;94003.59;4991761;28;20453;-65
2023/04/26 04:12:43;;;;;;;6.00;4.20;;;10.60;99.90;;;10.70;71.13;94010.16;4992591;28;20483;-57
2023/04/26 04:15:11;;;;;;;4.60;4.20;;;10.70;99.90;;;10.77;71.28;94016.44;4998609;28;21005;-65
2023/04/26 04:17:39;;;;;;;9.10;5.50;;;10.70;99.90;;;10.83;71.14;94014.97;4993056;28;20477;-57
2023/04/26 04:20:08;;;;;;;3.50;3.20;;;10.80;99.90;;;10.90;71.07;94009.88;4996206;28;20454;-66
2023/04/26 04:22:35;;;;;;;3.37;3.07;;;10.80;99.90;;;10.98;70.89;94015.13;4996129;28;20505;-65
2023/04/26 04:25:03;;;;;;;6.50;5.90;;;10.90;99.90;;;11.04;70.74;94006.59;4994617;28;20462;-57
2023/04/26 04:27:30;;;;;;;7.63;6.40;;;11.00;99.90;;;11.12;70.61;94008.41;4988948;28;20479;-66
2023/04/26 04:30:02;;;;;;;6.30;5.67;;;11.00;99.90;;;11.18;70.25;94007.75;4995288;28;20520;-65
2023/04/26 04:32:31;;;;;;;5.20;4.80;;;11.10;99.90;;;11.25;70.43;94005.28;4991815;28;20481;-56
2023/04/26 04:34:59;;;;;;;5.37;4.73;;;11.20;99.90;;;11.33;70.14;94013.19;4984784;28;20489;-58
2023/04/26 04:37:26;;;;;;;3.73;3.10;;;11.30;99.90;;;11.39;70.19;94012.50;4994492;28;20492;-64
2023/04/26 04:39:53;;;;;;;4.07;2.77;;;11.30;99.90;;;11.46;69.90;94013.50;4993163;28;20858;-65
2023/04/26 04:42:21;;;;;;;4.83;3.20;;;11.40;99.90;;;11.55;69.79;94016.13;4991656;28;20478;-55
2023/04/26 04:44:48;;;;;;;4.80;3.00;;;11.50;99.90;;;11.62;69.59;94022.38;4992046;28;20844;-57
2023/04/26 04:47:17;;;;;;;4.03;3.07;;;11.60;99.90;;;11.70;69.16;94018.91;4989484;28;20561;-56
2023/04/26 04:49:45;;;;;;;4.20;2.90;;;11.60;99.90;;;11.76;69.40;94020.88;4988572;28;20529;-66
2023/04/26 04:52:12;;;;;;;3.37;3.17;;;11.70;99.90;;;11.84;68.71;94020.84;4993022;28;20576;-66
2023/04/26 04:54:39;;;;;;;2.93;2.73;;;11.80;99.90;;;11.91;68.90;94023.59;4992653;28;20458;-66
2023/04/26 04:57:07;;;;;;;5.67;2.63;;;11.80;99.90;;;11.97;68.29;94015.06;4994034;28;20600;-56
2023/04/26 04:59:34;;;;;;;4.10;2.80;;;11.90;99.90;;;12.01;68.21;94014.56;4991230;28;20454;-56
2023/04/26 05:02:01;;;;;;;5.50;3.53;;;11.90;99.90;;;12.07;68.11;94014.84;4994535;28;20483;-56
2023/04/26 05:04:32;;;;;;;6.43;3.70;;;12.00;99.90;;;12.12;68.26;94023.09;4991326;28;20504;-68
2023/04/26 05:07:00;;;;;;;7.40;3.10;;;12.00;99.90;;;12.16;68.00;94019.09;4993710;28;20475;-57
2023/04/26 05:09:28;;;;;;;6.07;3.90;;;12.00;99.90;;;12.22;67.93;94014.97;4997661;28;20458;-65
2023/04/26 05:11:55;;;;;;;8.80;4.27;;;12.10;99.90;;;12.26;67.73;94011.00;4990999;28;20498;-65
2023/04/26 05:14:22;;;;;;;5.87;5.10;;;12.10;99.90;;;12.32;67.71;94015.59;4995995;28;20450;-56
2023/04/26 05:16:50;;;;;;;3.27;2.97;;;12.20;99.90;;;12.35;67.39;94009.97;4993574;28;20940;-56
2023/04/26 05:19:17;;;;;;;3.03;2.83;;;12.20;99.90;;;12.40;67.17;94009.47;4994798;28;20564;-66
2023/04/26 05:21:46;;;;;;;2.83;2.63;;;12.30;99.90;;;12.46;67.41;94017.50;4991273;28;20469;-65
2023/04/26 05:24:13;;;;;;;8.20;3.00;;;12.30;99.90;;;12.52;67.14;94008.09;4994043;28;20465;-56
2023/04/26 05:26:40;;;;;;;8.60;3.20;;;12.40;99.90;;;12.63;67.33;94012.16;4994884;28;20536;-64
2023/04/26 05:29:08;;;;;;;2.80;2.70;;;12.50;99.90;;;12.72;66.95;94016.38;4992542;28;20505;-56
2023/04/26 05:31:35;;;;;;;3.53;3.23;;;12.60;99.90;;;12.85;66.94;94024.53;4993111;28;20905;-67
2023/04/26 05:34:03;;;;;;;4.83;3.13;;;12.70;99.90;;;12.97;66.95;94026.78;4995027;28;20449;-56
2023/04/26 05:36:31;;;;;;;3.40;3.17;;;12.80;99.90;;;13.10;66.54;94019.09;4992409;28;20821;-56
2023/04/26 05:38:59;;;;;;;3.60;2.70;;;12.90;99.90;;;13.26;66.36;94023.41;4993697;28;20973;-55
2023/04/26 05:41:27;;;;;;;2.87;2.67;;;13.10;99.90;;;13.38;65.81;94023.88;4994630;28;20450;-65
2023/04/26 05:43:54;;;;;;;3.27;2.93;;;13.20;99.90;;;13.48;65.54;94024.44;4995387;28;20465;-67
2023/04/26 05:46:21;;;;;;;2.87;2.67;;;13.30;99.90;;;13.60;65.15;94036.22;4994153;28;20458;-65
2023/04/26 05:48:49;;;;;;;3.63;2.77;;;13.50;99.90;;;13.71;64.75;94034.13;4993233;28;20460;-65
2023/04/26 05:51:16;;;;;;;3.00;2.70;;;13.50;99.90;;;13.78;64.76;94032.41;4998531;28;20463;-55
2023/04/26 05:53:43;;;;;;;11.83;3.40;;;13.60;99.90;;;13.86;64.71;94034.97;4995130;28;20572;-66
2023/04/26 05:56:12;;;;;;;4.50;3.70;;;13.70;99.90;;;13.94;64.32;94037.56;4986697;28;20506;-56
2023/04/26 05:58:39;;;;;;;3.67;3.27;;;13.80;99.90;;;14.01;64.52;94042.13;4991963;28;20544;-65
2023/04/26 06:01:07;;;;;;;2.60;2.40;;;13.90;99.90;;;14.06;63.62;94047.69;4994816;28;20453;-66
2023/04/26 06:03:34;;;;;;;2.87;2.67;;;13.90;99.90;;;14.09;63.36;94044.66;4992961;28;21282;-56
2023/04/26 06:06:02;;;;;;;2.97;2.77;;;13.90;99.90;;;14.10;63.57;94051.63;4994073;28;20449;-66
2023/04/26 06:08:29;;;;;;;3.77;3.10;;;13.90;99.90;;;14.10;63.83;94048.97;4989457;28;20523;-58
2023/04/26 06:10:57;;;;;;;4.63;2.97;;;14.00;99.90;;;14.12;63.58;94049.59;4988729;28;20806;-66
2023/04/26 06:13:25;;;;;;;4.10;3.33;;;14.00;99.90;;;14.12;63.39;94039.03;4996693;28;20486;-56
2023/04/26 06:15:53;;;;;;;13.03;3.50;;;14.00;99.90;;;14.11;62.68;94050.59;4997529;28;20580;-55
2023/04/26 06:18:21;;;;;;;2.80;2.70;;;14.00;99.90;;;14.14;62.84;94043.13;4994644;28;20959;-65
2023/04/26 06:20:48;;;;;;;7.33;2.83;;;14.00;99.90;;;14.24;63.08;94052.63;4999009;28;20450;-57
2023/04/26 06:23:15;;;;;;;4.50;3.27;;;14.00;99.90;;;14.31;63.38;94050.88;4994581;28;20552;-58
2023/04/26 06:25:44;;;;;;;3.33;3.13;;;14.10;99.90;;;14.39;62.31;94052.59;4996838;28;20454;-65
2023/04/26 06:28:12;;;;;;;4.60;3.67;;;14.20;99.90;;;14.57;62.47;94068.09;4995695;28;20482;-57
2023/04/26 06:30:41;;;;;;;3.67;3.43;;;14.30;99.90;;;14.79;61.33;94059.22;4995024;28;20963;-57
2023/04/26 06:33:08;;;;;;;3.80;3.50;;;14.50;99.90;;;14.98;60.62;94057.84;4991764;28;20475;-60
2023/04/26 06:35:40;;;;;;;3.93;3.63;;;14.70;99.90;;;15.14;60.86;94064.72;4992403;28;21056;-66
2023/04/26 06:38:07;;;;;;;4.17;3.97;;;14.90;99.90;;;15.29;59.98;94058.53;4992271;28;20562;-65
2023/04/26 06:40:36;;;;;;;6.30;4.07;;;15.00;99.50;;;15.37;59.12;94058.44;4999871;28;20445;-55
2023/04/26 06:43:04;;;;;;;4.33;3.93;;;15.20;98.80;;;15.45;59.55;94057.50;4993309;28;20478;-66
2023/04/26 06:45:31;;;;;;;5.40;4.33;;;15.20;98.90;;;15.51;58.92;94060.19;4998015;28;20463;-56
2023/04/26 06:48:01;;;;;;;4.10;3.80;;;15.30;98.40;;;15.53;58.64;94066.13;4995393;28;20539;-65
2023/04/26 06:50:29;;;;;;;4.43;4.03;;;15.40;98.10;;;15.59;58.59;94072.50;4999123;28;20473;-56
2023/04/26 06:52:56;;;;;;;4.00;3.70;;;15.40;98.00;;;15.69;57.95;94062.41;4998091;28;20465;-66
2023/04/26 06:55:24;;;;;;;4.33;3.93;;;15.50;97.80;;;15.79;58.18;94069.22;4992882;28;20684;-65
2023/04/26 06:57:51;;;;;;;5.20;4.80;;;15.60;97.70;;;15.88;57.85;94062.75;4991072;28;20495;-65
2023/04/26 07:00:20;;;;;;;4.50;4.20;;;15.70;97.40;;;15.96;57.19;94062.63;4996811;28;20450;-57
2023/04/26 07:02:47;;;;;;;3.87;3.67;;;15.80;97.00;;;16.08;57.23;94066.38;5000077;28;20502;-57
2023/04/26 07:05:16;;;;;;;4.77;4.47;;;15.90;97.00;;;16.27;55.86;94059.56;4994861;28;20521;-65
2023/04/26 07:07:43;;;;;;;4.93;4.47;;;16.00;96.10;;;16.43;56.28;94068.22;4998550;28;20482;-56
2023/04/26 07:10:11;;;;;;;5.97;4.20;;;16.20;96.40;;;16.55;55.99;94058.69;4998425;28;20525;-65
2023/04/26 07:12:38;;;;;;;4.53;4.23;;;16.30;96.10;;;16.69;54.75;94056.94;4997476;28;20485;-66
2023/04/26 07:15:08;;;;;;;5.90;4.90;;;16.40;94.90;;;16.85;54.91;94050.44;4996113;28;20463;-66
2023/04/26 07:17:35;;;;;;;4.43;4.13;;;16.60;94.70;;;17.03;54.19;94063.22;4994747;28;20480;-66
2023/04/26 07:20:04;;;;;;;5.33;4.70;;;16.80;94.70;;;17.28;54.04;94060.03;4997899;28;20459;-58
2023/04/26 07:22:33;;;;;;;10.90;5.40;;;17.00;94.40;;;17.51;52.75;94055.16;4993967;28;20470;-65
2023/04/26 07:25:00;;;;;;;5.43;3.50;;;17.20;92.80;;;17.61;52.74;94067.22;4996250;28;20459;-65
2023/04/26 07:27:27;;;;;;;5.07;3.93;;;17.30;92.60;;;17.61;52.18;94067.22;4999455;28;20469;-57
2023/04/26 07:29:55;;;;;;;9.03;3.90;;;17.40;92.20;;;17.55;51.94;94064.38;4991040;28;20830;-58
2023/04/26 07:32:23;;;;;;;4.33;4.03;;;17.30;91.50;;;17.51;52.33;94062.31;4997908;28;20836;-65
2023/04/26 07:34:50;;;;;;;4.07;3.77;;;17.30;91.90;;;17.40;50.53;94069.03;4995581;28;20472;-58
2023/04/26 07:37:18;;;;;;;6.97;4.07;;;17.20;90.10;;;17.20;50.67;94074.31;4997098;28;21040;-65
2023/04/26 07:39:46;;;;;;;4.00;3.70;;;17.10;88.60;;;16.97;49.67;94083.41;4992711;28;20529;-57
2023/04/26 07:42:14;;;;;;;4.90;3.80;;;16.80;86.80;;;16.77;50.48;94072.69;4996049;28;20577;-67
2023/04/26 07:44:41;;;;;;;4.50;4.10;;;16.70;88.10;;;16.61;50.08;94075.69;4998459;28;20533;-55
2023/04/26 07:47:13;;;;;;;11.73;4.40;;;16.50;87.00;;;16.51;51.27;94069.91;4995462;28;20480;-65
2023/04/26 07:49:40;;;;;;;5.23;4.90;;;16.40;88.70;;;16.42;51.19;94093.13;4996688;28;20446;-57
2023/04/26 07:52:09;;;;;;;4.97;3.83;;;16.30;88.50;;;16.30;50.31;94085.72;4997742;28;20474;-64
2023/04/26 07:54:36;;;;;;;10.03;3.93;;;16.20;86.40;;;16.18;50.58;94086.47;4992938;28;20463;-56
2023/04/26 07:57:05;;;;;;;4.67;4.30;;;16.10;86.80;;;16.11;51.26;94087.22;4993442;28;20586;-64
2023/04/26 07:59:32;;;;;;;4.60;4.20;;;16.00;87.80;;;16.07;51.33;94082.50;4997602;28;20473;-57
2023/04/26 08:02:00;;;;;;;6.57;4.63;;;16.00;88.10;;;16.05;50.24;94084.50;4994686;28;20478;-56
2023/04/26 08:04:32;;;;;;;6.60;4.40;;;15.90;86.60;;;16.02;50.46;94076.94;4995002;28;20454;-56
2023/04/26 08:07:00;;;;;;;4.60;4.20;;;15.90;86.90;;;16.05;50.71;94076.53;4992421;28;20550;-65
2023/04/26 08:09:28;;;;;;;4.63;4.23;;;15.90;86.90;;;16.08;51.29;94082.31;4995090;28;20465;-63
2023/04/26 08:11:55;;;;;;;7.90;4.23;;;15.90;88.10;;;16.12;50.18;94077.44;4995091;28;20474;-57
2023/04/26 08:14:24;;;;;;;4.00;3.67;;;16.00;86.30;;;16.25;50.18;94084.66;4994104;28;20450;-64
2023/04/26 08:16:52;;;;;;;4.03;3.73;;;16.00;86.80;;;16.34;50.95;94080.81;4992272;28;20891;-57
2023/04/26 08:19:20;;;;;;;4.27;3.97;;;16.10;87.90;;;16.39;50.75;94080.25;4993513;28;20537;-58
2023/04/26 08:21:47;;;;;;;4.13;3.60;;;16.20;87.60;;;16.48;49.24;94066.63;4992552;28;20554;-56
2023/04/26 08:24:14;;;;;;;3.57;3.27;;;16.30;85.70;;;16.61;50.41;94075.69;4998913;28;20881;-66
2023/04/26 08:26:42;;;;;;;4.50;3.57;;;16.40;87.00;;;16.73;50.61;94075.94;4995712;28;20561;-56
2023/04/26 08:29:09;;;;;;;3.50;3.00;;;16.50;86.80;;;16.91;50.16;94080.75;4996468;28;20454;-65
2023/04/26 08:31:38;;;;;;;2.90;2.67;;;16.70;86.20;;;17.16;49.74;94078.38;4994166;28;20846;-56
2023/04/26 08:34:07;;;;;;;3.60;3.00;;;16.90;85.40;;;17.42;49.23;94071.50;4994216;28;21635;-57
2023/04/26 08:36:37;;;;;;;3.50;2.23;;;17.10;85.50;;;17.72;48.30;94071.94;4997188;28;21033;-65
2023/04/26 08:39:04;;;;;;;3.30;2.40;;;17.40;83.40;;;17.97;48.12;94069.53;4995639;28;20453;-55
2023/04/26 08:41:35;;;;;;;2.73;2.53;;;17.70;83.00;;;18.13;47.35;94060.31;4994789;28;20608;-64
2023/04/26 08:44:05;;;;;;;3.43;2.53;;;17.90;80.30;;;18.36;47.38;94069.69;4992395;28;20812;-65
2023/04/26 08:46:33;;;;;;;4.80;2.67;;;18.10;80.30;;;18.55;46.03;94076.81;4994585;28;20462;-66
2023/04/26 08:49:13;;;;;;;2.60;2.40;;;18.30;79.00;;;18.78;44.57;94071.00;4996173;28;20469;-65
2023/04/26 08:51:40;;;;;;;2.23;2.10;;;18.50;77.00;;;19.01;45.93;94075.06;4994309;28;21455;-65
2023/04/26 08:54:08;;;;;;;3.03;2.80;;;18.70;77.80;;;19.13;44.41;94072.53;4991475;28;20459;-65
2023/04/26 08:56:35;;;;;;;2.67;2.47;;;18.90;74.80;;;19.15;44.83;94076.63;4995535;28;20925;-65
2023/04/26 08:59:03;;;;;;;2.53;2.43;;;18.90;73.30;;;19.12;45.46;94078.91;4996999;28;20531;-57
2023/04/26 09:01:31;;;;;;;3.43;3.23;;;18.90;74.50;;;19.12;44.80;94068.25;4991489;28;20459;-57
2023/04/26 09:03:58;;;;;;;8.00;2.53;;;18.90;72.20;;;19.13;44.02;94061.88;4995242;28;20458;-65
2023/04/26 09:06:27;;;;;;;2.23;2.00;;;18.90;71.30;;;19.07;42.85;94068.06;4993163;28;20458;-65
2023/04/26 09:08:55;;;;;;;3.17;2.33;;;18.90;68.90;;;18.97;41.72;94079.16;4997400;28;20456;-57
2023/04/26 09:11:22;;;;;;;2.67;2.57;;;18.80;66.50;;;18.82;43.77;94082.06;4992325;28;20458;-58
2023/04/26 09:13:50;;;;;;;1.90;1.80;;;18.70;69.90;;;18.75;44.21;94081.28;4996353;28;20551;-57
2023/04/26 09:16:17;;;;;;;2.27;2.07;;;18.60;69.20;;;18.68;44.22;94077.81;4997754;28;20489;-66
2023/04/26 09:18:49;;;;;;;4.83;1.87;;;18.50;70.60;;;18.64;44.46;94088.06;4992101;28;20467;-65
2023/04/26 09:21:18;;;;;;;2.47;2.33;;;18.50;71.10;;;18.59;45.08;94082.53;4996274;28;20548;-56
2023/04/26 09:24:00;;;;;;;2.40;2.30;;;18.40;71.10;;;18.51;43.78;94080.09;4991428;28;20536;-58
2023/04/26 09:26:27;;;;;;;4.60;2.30;;;18.40;69.00;;;18.46;43.88;94088.72;4988554;28;20448;-56
2023/04/26 09:29:14;;;;;;;2.47;2.30;;;18.30;69.20;;;18.42;43.32;94082.19;4995079;28;21014;-65
2023/04/26 09:31:43;;;;;;;5.00;3.57;;;18.20;69.50;;;18.44;43.37;94080.94;4993268;28;20536;-66
2023/04/26 09:34:11;;;;;;;4.30;2.10;;;18.30;69.40;;;18.50;44.34;94089.09;4993748;28;20465;-65
2023/04/26 09:36:57;;;;;;;2.13;1.70;;;18.30;70.70;;;18.62;43.46;94090.94;4991002;28;21035;-65
2023/04/26 09:39:39;;;;;;;2.47;1.27;;;18.40;69.00;;;18.74;43.14;94091.09;4988435;28;20943;-65
2023/04/26 09:42:06;;;;;;;10.70;2.00;;;18.50;68.80;;;18.86;42.85;94085.97;4989238;28;20489;-64
2023/04/26 09:44:34;;;;;;;9.80;2.63;;;18.60;66.80;;;18.97;43.33;94076.50;4996209;28;20515;-66
2023/04/26 09:47:03;;;;;;;2.13;2.03;;;18.70;68.60;;;19.07;42.06;94086.72;4991991;28;20562;-65
2023/04/26 09:49:32;;;;;;;1.83;1.73;;;18.80;65.40;;;19.05;41.76;94075.44;4995819;28;20454;-56
2023/04/26 09:52:04;;;;;;;3.90;2.50;;;18.80;63.90;;;19.12;42.51;94076.25;4991973;28;20479;-56
2023/04/26 09:54:57;;;;;;;2.23;1.53;;;18.90;66.90;;;19.30;40.01;94073.69;4992283;28;20453;-56
2023/04/26 09:57:24;;;;;;;5.07;3.60;;;19.00;63.00;;;19.45;42.36;94069.91;4976613;28;20530;-58
2023/04/26 09:59:55;;;;;;;11.30;2.00;;;19.20;65.80;;;19.67;40.90;94078.38;4993046;28;20462;-65
2023/04/26 10:02:23;;;;;;;2.03;1.83;;;19.30;64.10;;;19.95;40.69;94071.84;4991007;28;20979;-65
2023/04/26 10:04:52;;;;;;;3.87;1.60;;;19.60;62.90;;;20.12;38.84;94059.59;4996594;28;20457;-56
2023/04/26 10:07:21;;;;;;;1.97;1.43;;;19.80;59.30;;;20.20;39.04;94071.84;4989724;28;20567;-56
2023/04/26 10:09:48;;;;;;;9.13;2.90;;;19.90;59.50;;;20.17;39.34;94069.59;4997220;28;20445;-65
2023/04/26 10:12:19;;;;;;;1.87;1.30;;;19.90;59.80;;;20.12;39.30;94066.78;4992542;28;20552;-65
2023/04/26 10:14:46;;;;;;;4.00;1.33;;;19.90;59.20;;;19.97;38.86;94073.28;4994036;28;20516;-57
2023/04/26 10:17:14;;;;;;;1.53;1.43;;;19.80;57.90;;;19.87;38.86;94073.75;4989930;28;20500;-62
2023/04/26 10:19:43;;;;;;;1.80;1.40;;;19.70;58.90;;;19.81;39.54;94076.47;4992770;28;20451;-65
2023/04/26 10:22:22;;;;;;;1.57;1.27;;;19.60;58.60;;;19.78;39.38;94063.56;4993366;28;20484;-65